createdAt,value
2023-02-02T00:00:50.084Z,95792.94
2023-02-02T00:03:16.729Z,95794.81
2023-02-02T00:05:51.992Z,95797.25
2023-02-02T00:08:20.102Z,95789.72
2023-02-02T00:10:46.764Z,95784.63
2023-02-02T00:13:13.752Z,95799.44
2023-02-02T00:15:40.607Z,95795.66
2023-02-02T00:18:07.257Z,95794.28
2023-02-02T00:20:34.141Z,95800.75
2023-02-02T00:23:00.780Z,95790.25
2023-02-02T00:25:28.196Z,95800.19
2023-02-02T00:27:54.731Z,95804.53
2023-02-02T00:30:22.185Z,95806.13
2023-02-02T00:32:49.119Z,95791.06
2023-02-02T00:35:15.651Z,95783.81
2023-02-02T00:37:42.443Z,95802.91
2023-02-02T00:40:10.439Z,95803.19
2023-02-02T00:42:36.941Z,95801.31
2023-02-02T00:45:04.700Z,95786.25
2023-02-02T00:47:31.357Z,95793.25
2023-02-02T00:49:57.864Z,95798.63
2023-02-02T00:52:24.509Z,95794.34
2023-02-02T00:54:50.966Z,95801.31
2023-02-02T00:57:17.517Z,95787.88
2023-02-02T00:59:44.024Z,95804.28
2023-02-02T01:02:11.719Z,95786.81
2023-02-02T01:04:38.633Z,95789.22
2023-02-02T01:07:05.291Z,95799.69
2023-02-02T01:09:31.829Z,95796.75
2023-02-02T01:11:58.394Z,95811.56
2023-02-02T01:14:25.327Z,95786.00
2023-02-02T01:16:51.829Z,95786.00
2023-02-02T01:19:18.336Z,95780.63
2023-02-02T01:21:44.899Z,95778.75
2023-02-02T01:24:11.577Z,95765.56
2023-02-02T01:26:38.093Z,95767.44
2023-02-02T01:29:04.711Z,95787.34
2023-02-02T01:31:31.236Z,95779.81
2023-02-02T01:33:57.886Z,95777.94
2023-02-02T01:36:24.753Z,95774.69
2023-02-02T01:38:52.067Z,95777.13
2023-02-02T01:41:22.323Z,95771.47
2023-02-02T01:44:00.690Z,95752.94
2023-02-02T01:46:35.466Z,95765.03
2023-02-02T01:49:09.935Z,95762.09
2023-02-02T01:51:48.819Z,95759.38
2023-02-02T01:54:21.739Z,95735.19
2023-02-02T01:56:55.083Z,95735.47
2023-02-02T01:59:22.545Z,95729.25
2023-02-02T02:01:50.663Z,95721.50
2023-02-02T02:04:17.202Z,95725.53
2023-02-02T02:06:45.208Z,95721.19
2023-02-02T02:09:11.920Z,95734.66
2023-02-02T02:11:38.482Z,95708.59
2023-02-02T02:14:09.092Z,95722.28
2023-02-02T02:17:03.543Z,95718.25
2023-02-02T02:19:51.609Z,95728.19
2023-02-02T02:22:20.617Z,95704.28
2023-02-02T02:25:33.953Z,95731.97
2023-02-02T02:28:33.518Z,95737.88
2023-02-02T02:31:54.922Z,95722.56
2023-02-02T02:35:00.548Z,95731.41
2023-02-02T02:37:39.417Z,95713.66
2023-02-02T02:40:25.649Z,95708.00
2023-02-02T02:42:58.993Z,95710.94
2023-02-02T02:45:28.314Z,95691.84
2023-02-02T02:47:56.373Z,95711.72
2023-02-02T02:50:24.461Z,95711.19
2023-02-02T02:53:01.964Z,95736.75
2023-02-02T02:55:39.546Z,95702.31
2023-02-02T02:58:35.156Z,95716.84
2023-02-02T03:01:16.355Z,95717.13
2023-02-02T03:04:10.883Z,95721.16
2023-02-02T03:06:55.249Z,95719.53
2023-02-02T03:09:25.011Z,95717.41
2023-02-02T03:11:51.675Z,95722.22
2023-02-02T03:14:18.236Z,95733.00
2023-02-02T03:16:44.841Z,95727.88
2023-02-02T03:19:11.456Z,95732.69
2023-02-02T03:21:37.992Z,95722.19
2023-02-02T03:24:05.053Z,95726.50
2023-02-02T03:26:31.771Z,95746.16
2023-02-02T03:28:58.457Z,95742.09
2023-02-02T03:31:27.700Z,95748.53
2023-02-02T03:33:55.192Z,95745.84
2023-02-02T03:36:21.979Z,95741.56
2023-02-02T03:38:48.596Z,95738.34
2023-02-02T03:41:15.201Z,95739.13
2023-02-02T03:43:41.744Z,95732.44
2023-02-02T03:46:08.375Z,95748.31
2023-02-02T03:48:37.121Z,95733.50
2023-02-02T03:51:11.665Z,95759.34
2023-02-02T03:53:39.368Z,95736.47
2023-02-02T03:56:06.748Z,95739.41
2023-02-02T03:58:33.253Z,95741.03
2023-02-02T04:01:04.846Z,95748.06
2023-02-02T04:03:31.580Z,95734.06
2023-02-02T04:05:58.117Z,95743.75
2023-02-02T04:08:24.564Z,95755.06
2023-02-02T04:10:51.300Z,95734.06
2023-02-02T04:13:17.776Z,95749.38
2023-02-02T04:15:44.270Z,95745.09
2023-02-02T04:18:10.822Z,95757.75
2023-02-02T04:20:37.608Z,95744.28
2023-02-02T04:23:06.838Z,95745.09
2023-02-02T04:25:33.360Z,95733.78
2023-02-02T04:28:00.463Z,95755.59
2023-02-02T04:30:26.925Z,95748.59
2023-02-02T04:32:54.831Z,95740.53
2023-02-02T04:35:21.457Z,95752.34
2023-02-02T04:37:47.974Z,95741.59
2023-02-02T04:40:14.870Z,95733.50
2023-02-02T04:42:41.459Z,95741.56
2023-02-02T04:45:08.333Z,95760.66
2023-02-02T04:47:34.873Z,95745.88
2023-02-02T04:50:01.386Z,95739.97
2023-02-02T04:52:29.118Z,95739.69
2023-02-02T04:54:55.743Z,95769.28
2023-02-02T04:57:22.339Z,95763.91
2023-02-02T04:59:48.920Z,95767.94
2023-02-02T05:02:15.472Z,95756.69
2023-02-02T05:04:42.035Z,95760.97
2023-02-02T05:07:08.637Z,95756.41
2023-02-02T05:09:35.236Z,95761.25
2023-02-02T05:12:01.819Z,95755.06
2023-02-02T05:14:28.442Z,95771.22
2023-02-02T05:16:55.053Z,95771.22
2023-02-02T05:19:21.632Z,95769.06
2023-02-02T05:21:50.801Z,95763.13
2023-02-02T05:24:17.599Z,95776.06
2023-02-02T05:26:44.125Z,95783.31
2023-02-02T05:29:10.635Z,95806.41
2023-02-02T05:31:37.371Z,95787.88
2023-02-02T05:34:03.964Z,95791.13
2023-02-02T05:36:30.443Z,95788.16
2023-02-02T05:38:57.082Z,95789.75
2023-02-02T05:41:23.598Z,95800.78
2023-02-02T05:43:50.133Z,95792.19
2023-02-02T05:46:16.692Z,95811.00
2023-02-02T05:48:43.295Z,95792.72
2023-02-02T05:51:18.587Z,95803.47
2023-02-02T05:53:45.511Z,95801.88
2023-02-02T05:56:13.039Z,95792.19
2023-02-02T05:58:39.524Z,95788.94
2023-02-02T06:01:06.074Z,95796.75
2023-02-02T06:03:32.881Z,95800.53
2023-02-02T06:05:59.545Z,95797.28
2023-02-02T06:08:26.025Z,95813.16
2023-02-02T06:10:52.646Z,95811.00
2023-02-02T06:13:19.219Z,95818.53
2023-02-02T06:15:45.754Z,95787.31
2023-02-02T06:18:12.335Z,95791.91
2023-02-02T06:20:38.904Z,95783.31
2023-02-02T06:23:06.054Z,95794.88
2023-02-02T06:25:32.761Z,95790.56
2023-02-02T06:28:00.174Z,95797.00
2023-02-02T06:30:27.941Z,95801.31
2023-02-02T06:32:54.702Z,95795.94
2023-02-02T06:35:21.293Z,95801.31
2023-02-02T06:37:47.864Z,95791.09
2023-02-02T06:40:14.402Z,95802.13
2023-02-02T06:42:40.918Z,95799.72
2023-02-02T06:45:07.852Z,95813.69
2023-02-02T06:47:34.533Z,95819.59
2023-02-02T06:50:01.002Z,95808.84
2023-02-02T06:52:27.602Z,95807.78
2023-02-02T06:54:54.075Z,95820.16
2023-02-02T06:57:20.562Z,95823.38
2023-02-02T06:59:47.309Z,95828.47
2023-02-02T07:02:14.214Z,95823.09
2023-02-02T07:04:40.794Z,95830.63
2023-02-02T07:07:07.346Z,95846.50
2023-02-02T07:09:34.360Z,95829.28
2023-02-02T07:12:00.836Z,95843.84
2023-02-02T07:14:27.416Z,95825.00
2023-02-02T07:16:53.970Z,95835.47
2023-02-02T07:19:20.529Z,95837.91
2023-02-02T07:21:47.224Z,95847.84
2023-02-02T07:24:13.763Z,95840.84
2023-02-02T07:26:40.291Z,95860.22
2023-02-02T07:29:06.927Z,95844.34
2023-02-02T07:31:36.104Z,95858.34
2023-02-02T07:34:03.452Z,95845.97
2023-02-02T07:36:29.989Z,95843.25
2023-02-02T07:38:56.873Z,95841.94
2023-02-02T07:41:24.218Z,95850.81
2023-02-02T07:43:51.279Z,95851.06
2023-02-02T07:46:19.066Z,95862.66
2023-02-02T07:48:45.896Z,95865.59
2023-02-02T07:51:17.809Z,95854.03
2023-02-02T07:53:45.857Z,95872.88
2023-02-02T07:56:13.781Z,95859.94
2023-02-02T07:58:41.134Z,95870.16
2023-02-02T08:01:09.942Z,95865.84
2023-02-02T08:03:37.424Z,95863.19
2023-02-02T08:06:17.568Z,95876.63
2023-02-02T08:08:44.825Z,95873.69
2023-02-02T08:11:13.354Z,95874.50
2023-02-02T08:13:41.023Z,95894.91
2023-02-02T08:16:07.836Z,95878.78
2023-02-02T08:18:35.114Z,95881.47
2023-02-02T08:21:02.876Z,95884.97
2023-02-02T08:23:29.832Z,95890.06
2023-02-02T08:26:06.456Z,95892.78
2023-02-02T08:28:32.960Z,95908.13
2023-02-02T08:31:08.190Z,95905.97
2023-02-02T08:33:35.080Z,95900.31
2023-02-02T08:36:02.592Z,95908.38
2023-02-02T08:38:29.196Z,95908.38
2023-02-02T08:40:56.075Z,95923.50
2023-02-02T08:43:22.637Z,95918.63
2023-02-02T08:46:04.411Z,95926.16
2023-02-02T08:48:37.714Z,95922.69
2023-02-02T08:51:05.481Z,95930.72
2023-02-02T08:53:33.500Z,95927.53
2023-02-02T08:56:04.871Z,95935.88
2023-02-02T08:58:32.221Z,95928.06
2023-02-02T09:01:32.256Z,95938.56
2023-02-02T09:04:04.657Z,95942.06
2023-02-02T09:06:34.655Z,95945.25
2023-02-02T09:09:01.706Z,95938.78
2023-02-02T09:11:28.682Z,95940.16
2023-02-02T09:13:57.636Z,95949.00
2023-02-02T09:16:26.072Z,95949.81
2023-02-02T09:18:53.163Z,95933.13
2023-02-02T09:21:20.437Z,95945.53
2023-02-02T09:23:48.583Z,95930.97
2023-02-02T09:26:17.725Z,95948.19
2023-02-02T09:28:47.379Z,95946.59
2023-02-02T09:31:14.714Z,95945.25
2023-02-02T09:33:42.247Z,95946.88
2023-02-02T09:36:09.017Z,95930.19
2023-02-02T09:38:36.129Z,95943.91
2023-02-02T09:41:23.759Z,95958.16
2023-02-02T09:44:13.807Z,95964.66
2023-02-02T09:46:55.233Z,95948.75
2023-02-02T09:49:33.816Z,95921.59
2023-02-02T09:52:04.996Z,95944.22
2023-02-02T09:54:40.872Z,95951.19
2023-02-02T09:57:16.775Z,95971.91
2023-02-02T09:59:45.323Z,95949.84
2023-02-02T10:02:21.032Z,95947.16
2023-02-02T10:04:54.367Z,95938.28
2023-02-02T10:07:28.055Z,95947.97
2023-02-02T10:10:09.642Z,95955.78
2023-02-02T10:12:36.261Z,95941.50
2023-02-02T10:15:30.872Z,95953.09
2023-02-02T10:18:05.600Z,95948.78
2023-02-02T10:20:41.613Z,95957.91
2023-02-02T10:23:30.486Z,95950.94
2023-02-02T10:26:18.531Z,95941.19
2023-02-02T10:28:44.939Z,95945.25
2023-02-02T10:31:18.686Z,95944.72
2023-02-02T10:33:55.869Z,95935.00
2023-02-02T10:36:38.653Z,95928.78
2023-02-02T10:39:24.328Z,95938.44
2023-02-02T10:42:24.571Z,95929.31
2023-02-02T10:44:59.471Z,95932.53
2023-02-02T10:47:29.516Z,95954.09
2023-02-02T10:50:20.114Z,95941.94
2023-02-02T10:52:52.385Z,95938.44
2023-02-02T10:55:22.154Z,95942.50
2023-02-02T10:58:13.571Z,95932.25
2023-02-02T11:00:47.480Z,95948.69
2023-02-02T11:03:16.267Z,95942.50
2023-02-02T11:05:42.899Z,95937.09
2023-02-02T11:08:19.985Z,95940.84
2023-02-02T11:10:51.954Z,95924.16
2023-02-02T11:13:37.117Z,95923.88
2023-02-02T11:16:17.159Z,95931.97
2023-02-02T11:18:44.671Z,95925.19
2023-02-02T11:21:19.907Z,95933.84
2023-02-02T11:24:00.428Z,95937.88
2023-02-02T11:26:41.451Z,95927.63
2023-02-02T11:29:15.992Z,95918.19
2023-02-02T11:31:42.964Z,95918.44
2023-02-02T11:34:17.794Z,95925.72
2023-02-02T11:37:13.498Z,95924.91
2023-02-02T11:39:42.067Z,95927.88
2023-02-02T11:42:14.909Z,95931.63
2023-02-02T11:44:47.504Z,95909.28
2023-02-02T11:47:33.876Z,95920.06
2023-02-02T11:50:02.633Z,95925.47
2023-02-02T11:52:33.076Z,95928.41
2023-02-02T11:55:02.633Z,95931.91
2023-02-02T11:57:29.500Z,95916.03
2023-02-02T12:00:16.347Z,95924.94
2023-02-02T12:02:47.178Z,95931.97
2023-02-02T12:05:33.026Z,95921.19
2023-02-02T12:07:59.954Z,95939.56
2023-02-02T12:10:36.529Z,95922.84
2023-02-02T12:13:27.743Z,95965.97
2023-02-02T12:16:13.208Z,95925.00
2023-02-02T12:19:01.678Z,95936.03
2023-02-02T12:22:04.077Z,95914.25
2023-02-02T12:24:49.080Z,95914.78
2023-02-02T12:27:32.673Z,95935.00
2023-02-02T12:30:17.976Z,95923.16
2023-02-02T12:33:06.346Z,95926.63
2023-02-02T12:35:51.867Z,95923.44
2023-02-02T12:38:35.031Z,95925.06
2023-02-02T12:41:07.277Z,95946.88
2023-02-02T12:43:42.137Z,95946.84
2023-02-02T12:46:29.833Z,95933.94
2023-02-02T12:49:11.124Z,95933.66
2023-02-02T12:52:11.129Z,95938.25
2023-02-02T12:54:56.764Z,95944.97
2023-02-02T12:57:42.795Z,95942.53
2023-02-02T13:00:40.337Z,95943.91
2023-02-02T13:03:15.886Z,95967.38
2023-02-02T13:05:59.053Z,95989.69
2023-02-02T13:08:31.220Z,95957.91
2023-02-02T13:11:04.481Z,95943.66
2023-02-02T13:13:37.910Z,95967.06
2023-02-02T13:16:11.613Z,95961.69
2023-02-02T13:18:45.697Z,95968.16
2023-02-02T13:21:16.329Z,95964.41
2023-02-02T13:23:57.863Z,95988.34
2023-02-02T13:26:28.569Z,95980.28
2023-02-02T13:29:03.045Z,95989.69
2023-02-02T13:31:51.785Z,95987.00
2023-02-02T13:34:31.087Z,96000.47
2023-02-02T13:37:10.051Z,96005.56
2023-02-02T13:39:41.766Z,95998.59
2023-02-02T13:42:26.592Z,96007.72
2023-02-02T13:45:01.607Z,96003.97
2023-02-02T13:47:42.639Z,96002.56
2023-02-02T13:50:15.475Z,96015.22
2023-02-02T13:53:14.987Z,96006.34
2023-02-02T13:55:59.922Z,96017.09
2023-02-02T13:59:09.346Z,96013.88
2023-02-02T14:01:36.327Z,96016.56
2023-02-02T14:04:03.010Z,96001.47
2023-02-02T14:06:54.186Z,96018.16
2023-02-02T14:09:20.836Z,96015.72
2023-02-02T14:11:59.265Z,96018.69
2023-02-02T14:14:26.031Z,96029.19
2023-02-02T14:16:52.659Z,96019.75
2023-02-02T14:19:31.355Z,96016.00
2023-02-02T14:21:58.991Z,96025.94
2023-02-02T14:24:28.420Z,96026.19
2023-02-02T14:27:00.939Z,96044.47
2023-02-02T14:29:27.442Z,96044.47
2023-02-02T14:31:56.014Z,96041.53
2023-02-02T14:34:34.714Z,96052.03
2023-02-02T14:37:07.096Z,96039.38
2023-02-02T14:39:51.506Z,96041.00
2023-02-02T14:42:36.591Z,96042.88
2023-02-02T14:45:12.365Z,96052.53
2023-02-02T14:47:44.920Z,96054.69
2023-02-02T14:50:39.065Z,96046.34
2023-02-02T14:53:17.622Z,96053.06
2023-02-02T14:55:55.325Z,96053.88
2023-02-02T14:58:43.411Z,96059.50
2023-02-02T15:01:25.198Z,96058.97
2023-02-02T15:04:17.439Z,96055.75
2023-02-02T15:10:02.163Z,96067.47
2023-02-02T15:12:35.171Z,96064.59
2023-02-02T15:15:20.613Z,96066.75
2023-02-02T15:18:00.899Z,96064.59
2023-02-02T15:20:27.548Z,96070.75
2023-02-02T15:22:59.118Z,96062.97
2023-02-02T15:25:42.721Z,96076.94
2023-02-02T15:28:26.445Z,96078.56
2023-02-02T15:31:00.637Z,96076.94
2023-02-02T15:33:29.257Z,96079.63
2023-02-02T15:35:59.523Z,96088.00
2023-02-02T15:38:33.900Z,96097.13
2023-02-02T15:41:06.480Z,96093.38
2023-02-02T15:43:34.741Z,96106.56
2023-02-02T15:46:06.104Z,96095.00
2023-02-02T15:48:32.899Z,96109.53
2023-02-02T15:51:03.369Z,96097.41
2023-02-02T15:53:45.867Z,96126.97
2023-02-02T15:56:24.129Z,96114.06
2023-02-02T15:58:54.463Z,96120.28
2023-02-02T16:01:23.263Z,96122.97
2023-02-02T16:04:17.315Z,96132.09
2023-02-02T16:06:45.127Z,96138.25
2023-02-02T16:09:23.824Z,96137.47
2023-02-02T16:11:50.635Z,96148.22
2023-02-02T16:14:17.299Z,96141.50
2023-02-02T16:16:47.149Z,96136.94
2023-02-02T16:19:18.148Z,96151.72
2023-02-02T16:21:54.855Z,96157.63
2023-02-02T16:24:26.690Z,96170.50
2023-02-02T16:26:55.288Z,96156.31
2023-02-02T16:29:22.386Z,96167.59
2023-02-02T16:31:50.243Z,96161.16
2023-02-02T16:34:19.508Z,96166.53
2023-02-02T16:37:04.849Z,96164.66
2023-02-02T16:39:31.497Z,96165.50
2023-02-02T16:42:24.341Z,96172.16
2023-02-02T16:44:51.509Z,96188.91
2023-02-02T16:47:27.029Z,96186.75
2023-02-02T16:50:08.614Z,96182.44
2023-02-02T16:52:50.623Z,96196.16
2023-02-02T16:55:18.796Z,96208.53
2023-02-02T16:57:46.382Z,96212.28
2023-02-02T17:00:20.466Z,96195.91
2023-02-02T17:02:50.266Z,96213.38
2023-02-02T17:05:27.418Z,96213.41
2023-02-02T17:07:58.478Z,96215.03
2023-02-02T17:10:28.677Z,96210.19
2023-02-02T17:12:55.278Z,96209.94
2023-02-02T17:15:34.392Z,96209.09
2023-02-02T17:18:01.921Z,96218.25
2023-02-02T17:20:29.276Z,96220.44
2023-02-02T17:23:00.460Z,96220.69
2023-02-02T17:25:30.397Z,96213.44
2023-02-02T17:27:59.043Z,96232.28
2023-02-02T17:30:26.645Z,96228.81
2023-02-02T17:32:53.228Z,96220.72
2023-02-02T17:35:26.171Z,96234.72
2023-02-02T17:37:53.975Z,96245.78
2023-02-02T17:40:23.806Z,96247.63
2023-02-02T17:42:52.896Z,96263.53
2023-02-02T17:45:28.362Z,96236.34
2023-02-02T17:47:55.137Z,96230.19
2023-02-02T17:50:22.084Z,96240.94
2023-02-02T17:52:49.403Z,96265.47
2023-02-02T17:55:31.265Z,96252.00
2023-02-02T17:57:57.924Z,96249.28
2023-02-02T18:00:28.621Z,96247.66
2023-02-02T18:03:14.072Z,96254.69
2023-02-02T18:05:43.220Z,96251.19
2023-02-02T18:08:12.035Z,96273.25
2023-02-02T18:10:38.809Z,96287.00
2023-02-02T18:13:05.849Z,96265.78
2023-02-02T18:15:32.757Z,96286.22
2023-02-02T18:17:59.250Z,96270.34
2023-02-02T18:20:25.745Z,96278.16
2023-02-02T18:22:52.340Z,96271.38
2023-02-02T18:25:19.367Z,96286.47
2023-02-02T18:27:46.161Z,96291.34
2023-02-02T18:30:13.357Z,96281.41
2023-02-02T18:32:41.596Z,96288.91
2023-02-02T18:35:08.900Z,96291.56
2023-02-02T18:37:36.274Z,96296.97
2023-02-02T18:40:03.639Z,96310.44
2023-02-02T18:42:30.168Z,96309.66
2023-02-02T18:44:56.637Z,96307.75
2023-02-02T18:47:23.704Z,96318.50
2023-02-02T18:49:50.429Z,96318.50
2023-02-02T18:52:17.045Z,96326.03
2023-02-02T18:54:45.226Z,96328.47
2023-02-02T18:57:13.392Z,96317.19
2023-02-02T18:59:43.516Z,96323.34
2023-02-02T19:02:18.783Z,96318.75
2023-02-02T19:04:46.343Z,96336.53
2023-02-02T19:07:12.847Z,96320.63
2023-02-02T19:09:39.486Z,96316.59
2023-02-02T19:12:12.346Z,96323.06
2023-02-02T19:14:39.523Z,96329.78
2023-02-02T19:17:14.696Z,96333.78
2023-02-02T19:19:41.213Z,96339.72
2023-02-02T19:22:22.236Z,96336.22
2023-02-02T19:24:49.665Z,96324.34
2023-02-02T19:27:20.202Z,96340.75
2023-02-02T19:29:48.767Z,96363.59
2023-02-02T19:32:18.073Z,96351.75
2023-02-02T19:34:46.472Z,96343.63
2023-02-02T19:37:18.213Z,96347.94
2023-02-02T19:39:44.849Z,96353.06
2023-02-02T19:42:11.473Z,96354.13
2023-02-02T19:44:38.069Z,96350.88
2023-02-02T19:47:20.756Z,96370.59
2023-02-02T19:49:47.391Z,96377.00
2023-02-02T19:52:21.761Z,96371.84
2023-02-02T19:54:49.270Z,96381.53
2023-02-02T19:57:34.606Z,96380.69
2023-02-02T20:00:11.083Z,96383.41
2023-02-02T20:02:48.949Z,96397.13
2023-02-02T20:05:21.611Z,96387.75
2023-02-02T20:07:54.757Z,96389.88
2023-02-02T20:10:22.899Z,96400.06
2023-02-02T20:12:50.543Z,96404.03
2023-02-02T20:15:38.913Z,96405.16
2023-02-02T20:18:13.570Z,96415.13
2023-02-02T20:20:43.041Z,96410.78
2023-02-02T20:23:31.802Z,96417.22
2023-02-02T20:26:02.204Z,96410.78
2023-02-02T20:28:42.420Z,96414.28
2023-02-02T20:31:12.446Z,96408.91
2023-02-02T20:33:43.040Z,96410.78
2023-02-02T20:36:32.595Z,96407.81
2023-02-02T20:39:12.847Z,96401.94
2023-02-02T20:41:39.520Z,96412.34
2023-02-02T20:44:06.022Z,96412.09
2023-02-02T20:46:32.597Z,96414.78
2023-02-02T20:48:59.089Z,96419.91
2023-02-02T20:51:25.565Z,96431.50
2023-02-02T20:53:52.187Z,96411.84
2023-02-02T20:56:18.668Z,96407.03
2023-02-02T20:58:45.168Z,96428.25
2023-02-02T21:01:11.742Z,96421.56
2023-02-02T21:03:38.216Z,96427.72
2023-02-02T21:06:04.792Z,96422.59
2023-02-02T21:08:31.704Z,96432.31
2023-02-02T21:10:58.517Z,96426.94
2023-02-02T21:13:25.074Z,96420.50
2023-02-02T21:15:51.634Z,96429.88
2023-02-02T21:18:18.436Z,96436.63
2023-02-02T21:20:44.970Z,96432.56
2023-02-02T21:23:11.441Z,96440.38
2023-02-02T21:25:37.968Z,96439.06
2023-02-02T21:28:04.708Z,96433.13
2023-02-02T21:30:32.219Z,96449.50
2023-02-02T21:32:58.919Z,96437.44
2023-02-02T21:35:25.876Z,96451.44
2023-02-02T21:37:57.668Z,96443.94
2023-02-02T21:40:29.532Z,96448.19
2023-02-02T21:42:59.149Z,96452.28
2023-02-02T21:45:38.595Z,96450.63
2023-02-02T21:48:20.190Z,96445.75
2023-02-02T21:50:47.038Z,96431.81
2023-02-02T21:53:24.487Z,96447.91
2023-02-02T21:55:59.492Z,96445.25
2023-02-02T21:58:33.425Z,96439.06
2023-02-02T22:01:16.919Z,96438.81
2023-02-02T22:03:44.042Z,96441.50
2023-02-02T22:06:33.121Z,96448.19
2023-02-02T22:09:06.487Z,96457.66
2023-02-02T22:11:50.903Z,96463.84
2023-02-02T22:14:20.184Z,96454.97
2023-02-02T22:16:51.120Z,96463.03
2023-02-02T22:19:35.124Z,96459.75
2023-02-02T22:22:23.384Z,96458.16
2023-02-02T22:25:00.060Z,96462.44
2023-02-02T22:27:38.213Z,96464.88
2023-02-02T22:30:20.481Z,96477.50
2023-02-02T22:32:47.065Z,96480.72
2023-02-02T22:35:13.530Z,96492.28
2023-02-02T22:37:40.204Z,96485.59
2023-02-02T22:40:07.278Z,96479.16
2023-02-02T22:42:33.738Z,96477.78
2023-02-02T22:45:00.289Z,96472.16
2023-02-02T22:47:26.883Z,96463.28
2023-02-02T22:49:53.913Z,96482.13
2023-02-02T22:52:20.576Z,96484.22
2023-02-02T22:54:47.214Z,96474.84
2023-02-02T22:57:13.733Z,96487.16
2023-02-02T22:59:40.239Z,96480.97
2023-02-02T23:02:06.734Z,96489.09
2023-02-02T23:04:33.258Z,96490.47
2023-02-02T23:06:59.732Z,96485.66
2023-02-02T23:09:26.283Z,96480.56
2023-02-02T23:11:52.872Z,96481.41
2023-02-02T23:14:19.343Z,96488.38
2023-02-02T23:16:45.885Z,96490.81
2023-02-02T23:19:12.376Z,96498.66
2023-02-02T23:21:38.844Z,96498.97
2023-02-02T23:24:05.715Z,96501.91
2023-02-02T23:26:32.294Z,96504.34
2023-02-02T23:28:58.771Z,96499.78
2023-02-02T23:31:25.462Z,96495.69
2023-02-02T23:33:52.065Z,96492.75
2023-02-02T23:36:18.743Z,96498.13
2023-02-02T23:38:45.246Z,96485.78
2023-02-02T23:41:11.799Z,96483.63
2023-02-02T23:43:38.312Z,96485.78
2023-02-02T23:46:05.089Z,96482.81
2023-02-02T23:48:31.703Z,96491.16
2023-02-02T23:50:59.271Z,96482.56
2023-02-02T23:53:25.909Z,96475.00
2023-02-02T23:55:52.628Z,96478.75
2023-02-02T23:58:19.168Z,96473.38
